Decoded Metar for KELZ (WELLSVILLE in NY, USA) (IATA:ELZ) | Meteo·Mobile Aviation Weather
aviador You're here:

KELZ Decoded Metar

WELLSVILLE in NY, USA
Report Time2019-01-18 10:56:00
UTC Time2019-01-18 11:21:57
Flight Rules mvfr MVFR
WindVRB at 03 kt
Visibility4828 m
Phenomena:Light Snow
Mist
Clouds:Broken 034 Hf
Overcast 090 Hf
Ceiling3,400 ft
Temp-4°C (ISA -15)
Dew Point-4°C (100% RH)
AAT-7.6°C
QNH1012 hPa
Density Alt410 ft
Elevation2,119 ft
Report Wrong Elevation
Raw Report
KELZ 181056Z AUTO VRB03KT 3SM -SN BR BKN034 OVC090 M04/M04 A2989
RMK AO2 SLP152 P0000 T10391044 $=

Extra information for KELZ:More info

Metar Taf Metar & Taf Last 4 Metars F.Rules Stats Wind Profile Meteogram Temp Stats Airport Information Weather charts Add Link Nearby VenuesMetar ALERT Operation Metar Decoded Social comments

AIRNAV info for KELZ